• Join FlightAware (Why Join?)
  • Login
  • US Flag 
06:00AM EST


 

Airport Tracker/Info


-or-


 

Live Flight TrackerFlight Track Log ✈ N100PU ✈ 04-Feb-2014 ✈ KHUF - KLAF

Flight Track Log - Related Links

Times and Time Zones

All times are in EST time to prevent confusion due to time zone crossing. See the N100PU flight status page for this flight to view local times or setup timezone preferences in your user account.

Time Position Orientation Groundspeed Altitude Reporting Facility
EST Latitude Longitude Course Direction KTS MPH feet Rate Location/Type
02:49PM 39.6242 -87.1981 14° North 224 258 8,100  Level Indianapolis Center
02:50PM 39.6939 -87.1750 14° North 250 288 9,000 120 Climbing Indianapolis Center
02:51PM 39.7917 -87.1436 14° North 294 338 8,400 -780 Descending Indianapolis Center
02:52PM 39.6957 -87.2015 14° North  Level FlightAware Approximate
02:52PM 39.8697 -87.1172 15° North 292 336 7,400  Level Indianapolis Center
02:53PM 39.7458 -87.1848 14° North  Level FlightAware Approximate
02:53PM 39.9469 -87.0922 14° North 288 331 6,400  Level Indianapolis Center
02:54PM 39.7959 -87.1681 14° North  Level FlightAware Approximate
02:54PM 40.0203 -87.0669 15° North 282 325 5,400  Level Indianapolis Center
02:55PM 40.0869 -87.0450 14° North 268 308 5,000 -240 Descending Indianapolis Center
02:56PM 40.1558 -87.0233 14° North 259 298 5,000 -360 Level Chicago Center
02:56PM 40.1739 -87.0183 12° North 252 290 4,600 -1,800 Descending Chicago Center
02:57PM 40.2353 -86.9981 14° North 240 276 3,000 -840 Descending Chicago Center
02:58PM 40.2872 -86.9956 North 231 266 3,000  Level Chicago Center
02:58PM 40.2872 -87.0014 270° West 195 224 3,000  Level Chicago Center
02:59PM 40.3108 -87.0606 298° West 210 242 3,000  Level Chicago Center
02:59PM 40.3117 -87.0714 276° West 193 222 3,000  Level Chicago Center
03:00PM 40.3358 -87.1311 298° West 203 234 3,000  Level Chicago Center
03:00PM 40.3342 -87.1328 217° Southwest 194 223 3,000  Level Chicago Center
03:01PM 40.3608 -87.1947 299° West 193 222 3,000 -240 Level Chicago Center
03:02PM 40.4086 -87.1981 357° North 187 215 2,600 -240 Descending Chicago Center
03:03PM 40.4394 -87.1592 44° Northeast 160 184 2,600  Level Chicago Center
03:04PM 40.4314 -87.1014 100° East 163 188 2,600 -120 Level Chicago Center
03:05PM 40.4250 -87.0572 101° East 106 122 2,400 -360 Descending Chicago Center
03:06PM 40.4219 -87.0269 98° East 80 92 1,900 -540 Descending Chicago Center